createdAt,value
2023-08-29T00:00:05.377Z,4.80
2023-08-29T00:00:15.416Z,4.90
2023-08-29T00:00:25.451Z,5.20
2023-08-29T00:00:35.483Z,4.80
2023-08-29T00:00:45.532Z,3.60
2023-08-29T00:00:55.577Z,3.70
2023-08-29T00:01:05.612Z,3.30
2023-08-29T00:01:15.697Z,4.70
2023-08-29T00:01:25.783Z,4.50
2023-08-29T00:01:35.819Z,5.10
2023-08-29T00:01:45.877Z,5.30
2023-08-29T00:01:55.922Z,6.50
2023-08-29T00:02:05.779Z,6.20
2023-08-29T00:02:15.811Z,6.30
2023-08-29T00:02:25.877Z,5.00
2023-08-29T00:02:35.936Z,4.80
2023-08-29T00:02:45.948Z,3.80
2023-08-29T00:02:56.008Z,3.70
2023-08-29T00:03:06.099Z,3.80
2023-08-29T00:03:16.121Z,3.40
2023-08-29T00:03:26.234Z,3.50
2023-08-29T00:03:36.153Z,3.50
2023-08-29T00:03:46.204Z,3.50
2023-08-29T00:03:56.216Z,3.50
2023-08-29T00:04:06.315Z,3.50
2023-08-29T00:04:16.348Z,4.10
2023-08-29T00:04:26.371Z,4.60
2023-08-29T00:04:36.420Z,3.80
2023-08-29T00:04:46.443Z,3.80
2023-08-29T00:04:56.500Z,4.10
2023-08-29T00:05:06.553Z,4.60
2023-08-29T00:05:16.640Z,5.60
2023-08-29T00:05:26.641Z,6.50
2023-08-29T00:05:36.681Z,6.80
2023-08-29T00:05:46.667Z,4.80
2023-08-29T00:05:56.686Z,3.20
2023-08-29T00:06:06.721Z,3.90
2023-08-29T00:06:16.767Z,4.70
2023-08-29T00:06:26.815Z,4.50
2023-08-29T00:06:36.875Z,4.50
2023-08-29T00:06:46.909Z,5.80
2023-08-29T00:06:56.927Z,5.90
2023-08-29T00:07:06.947Z,5.30
2023-08-29T00:07:16.976Z,3.80
2023-08-29T00:07:27.083Z,4.30
2023-08-29T00:07:37.121Z,5.00
2023-08-29T00:07:47.181Z,5.90
2023-08-29T00:07:57.209Z,5.20
2023-08-29T00:08:07.522Z,4.30
2023-08-29T00:08:17.302Z,3.30
2023-08-29T00:08:27.326Z,4.90
2023-08-29T00:08:37.352Z,5.60
2023-08-29T00:08:47.386Z,5.50
2023-08-29T00:08:57.413Z,3.70
2023-08-29T00:09:07.435Z,3.10
2023-08-29T00:09:17.482Z,3.10
2023-08-29T00:09:27.521Z,3.60
2023-08-29T00:09:37.641Z,3.50
2023-08-29T00:09:47.671Z,3.50
2023-08-29T00:09:57.728Z,3.00
2023-08-29T00:10:07.773Z,2.60
2023-08-29T00:10:17.848Z,2.50
2023-08-29T00:10:27.878Z,2.60
2023-08-29T00:10:37.903Z,2.50
2023-08-29T00:10:47.933Z,3.40
2023-08-29T00:10:57.962Z,3.90
2023-08-29T00:11:08.001Z,5.10
2023-08-29T00:11:18.067Z,5.40
2023-08-29T00:11:28.089Z,4.80
2023-08-29T00:11:38.118Z,3.80
2023-08-29T00:11:48.139Z,5.40
2023-08-29T00:11:58.180Z,5.90
2023-08-29T00:12:08.220Z,6.80
2023-08-29T00:12:18.279Z,6.20
2023-08-29T00:12:28.289Z,6.10
2023-08-29T00:12:38.343Z,5.60
2023-08-29T00:12:48.374Z,4.10
2023-08-29T00:12:58.388Z,4.10
2023-08-29T00:13:08.429Z,3.60
2023-08-29T00:13:18.440Z,4.30
2023-08-29T00:13:28.484Z,4.30
2023-08-29T00:13:38.519Z,4.90
2023-08-29T00:13:48.578Z,4.70
2023-08-29T00:13:58.602Z,4.90
2023-08-29T00:14:08.662Z,4.30
2023-08-29T00:14:18.704Z,4.70
2023-08-29T00:14:28.728Z,4.70
2023-08-29T00:14:38.779Z,4.20
2023-08-29T00:14:48.805Z,3.90
2023-08-29T00:14:58.841Z,3.40
2023-08-29T00:15:08.876Z,4.00
2023-08-29T00:15:18.896Z,3.30
2023-08-29T00:15:28.913Z,3.00
2023-08-29T00:15:38.949Z,3.30
2023-08-29T00:15:49.036Z,3.60
2023-08-29T00:15:59.094Z,5.10
2023-08-29T00:16:09.138Z,4.60
2023-08-29T00:16:19.159Z,5.60
2023-08-29T00:16:29.186Z,5.10
2023-08-29T00:16:39.239Z,5.20
2023-08-29T00:16:49.223Z,4.90
2023-08-29T00:16:59.237Z,4.50
2023-08-29T00:17:09.273Z,4.20
2023-08-29T00:17:19.305Z,3.50
2023-08-29T00:17:29.340Z,3.20
2023-08-29T00:17:39.428Z,3.10
2023-08-29T00:17:49.451Z,3.90
2023-08-29T00:17:59.481Z,4.30
2023-08-29T00:18:09.808Z,5.20
2023-08-29T00:18:19.509Z,4.80
2023-08-29T00:18:29.548Z,4.40
2023-08-29T00:18:39.572Z,4.00
2023-08-29T00:18:49.592Z,4.10
2023-08-29T00:18:59.602Z,3.50
2023-08-29T00:19:09.624Z,2.80
2023-08-29T00:19:19.713Z,3.50
2023-08-29T00:19:29.742Z,4.90
2023-08-29T00:19:39.756Z,6.00
2023-08-29T00:19:49.834Z,5.30
2023-08-29T00:19:59.847Z,4.30
2023-08-29T00:20:09.877Z,3.30
2023-08-29T00:20:19.887Z,2.70
2023-08-29T00:20:29.905Z,3.50
2023-08-29T00:20:39.923Z,5.00
2023-08-29T00:20:49.940Z,5.10
2023-08-29T00:20:59.969Z,5.80
2023-08-29T00:21:09.983Z,4.70
2023-08-29T00:21:20.016Z,5.70
2023-08-29T00:21:30.036Z,4.40
2023-08-29T00:21:40.052Z,4.00
2023-08-29T00:21:50.088Z,3.20
2023-08-29T00:22:00.142Z,3.40
2023-08-29T00:22:10.128Z,3.80
2023-08-29T00:22:20.160Z,4.30
2023-08-29T00:22:30.173Z,4.40
2023-08-29T00:22:40.210Z,3.90
2023-08-29T00:22:50.250Z,3.20
2023-08-29T00:23:00.269Z,2.60
2023-08-29T00:23:10.348Z,3.40
2023-08-29T00:23:20.387Z,3.70
2023-08-29T00:23:30.377Z,3.90
2023-08-29T00:23:40.418Z,3.40
2023-08-29T00:23:50.471Z,3.30
2023-08-29T00:24:00.465Z,3.40
2023-08-29T00:24:10.461Z,3.60
2023-08-29T00:24:20.581Z,3.60
2023-08-29T00:24:30.606Z,3.20
2023-08-29T00:24:40.622Z,5.70
2023-08-29T00:24:50.616Z,5.20
2023-08-29T00:25:00.623Z,5.50
2023-08-29T00:25:10.649Z,2.60
2023-08-29T00:25:20.642Z,3.90
2023-08-29T00:25:30.672Z,4.10
2023-08-29T00:25:40.673Z,4.40
2023-08-29T00:25:50.691Z,3.60
2023-08-29T00:26:00.709Z,3.30
2023-08-29T00:26:10.716Z,3.50
2023-08-29T00:26:20.729Z,3.60
2023-08-29T00:26:30.734Z,4.10
2023-08-29T00:26:40.751Z,4.60
2023-08-29T00:26:50.770Z,4.80
2023-08-29T00:27:00.767Z,4.70
2023-08-29T00:27:10.772Z,4.30
2023-08-29T00:27:20.778Z,4.20
2023-08-29T00:27:30.782Z,3.90
2023-08-29T00:27:40.801Z,4.00
2023-08-29T00:27:50.812Z,4.90
2023-08-29T00:28:00.832Z,5.40
2023-08-29T00:28:10.859Z,6.10
2023-08-29T00:28:20.939Z,4.90
2023-08-29T00:28:30.942Z,3.50
2023-08-29T00:28:40.962Z,3.10
2023-08-29T00:28:50.988Z,3.40
2023-08-29T00:29:00.981Z,3.80
2023-08-29T00:29:10.979Z,3.60
2023-08-29T00:29:21.004Z,3.40
2023-08-29T00:29:31.007Z,4.50
2023-08-29T00:29:40.999Z,4.90
2023-08-29T00:29:51.000Z,5.00
2023-08-29T00:30:01.008Z,3.80
2023-08-29T00:30:11.033Z,3.20
2023-08-29T00:30:21.042Z,3.10
2023-08-29T00:30:31.063Z,3.90
2023-08-29T00:30:44.679Z,5.30
2023-08-29T00:30:51.046Z,5.70
2023-08-29T00:31:01.059Z,6.10
2023-08-29T00:31:11.074Z,5.50
2023-08-29T00:31:21.082Z,6.30
2023-08-29T00:31:31.118Z,5.70
2023-08-29T00:31:41.145Z,5.00
2023-08-29T00:31:51.168Z,4.80
2023-08-29T00:32:01.175Z,4.50
2023-08-29T00:32:11.213Z,4.50
2023-08-29T00:32:21.241Z,5.20
2023-08-29T00:32:31.255Z,4.80
2023-08-29T00:32:41.290Z,5.40
2023-08-29T00:32:51.316Z,3.90
2023-08-29T00:33:01.381Z,3.90
2023-08-29T00:33:11.381Z,2.90
2023-08-29T00:33:21.374Z,3.00
2023-08-29T00:33:31.392Z,3.40
2023-08-29T00:33:41.398Z,5.70
2023-08-29T00:33:51.402Z,6.30
2023-08-29T00:34:01.416Z,6.30
2023-08-29T00:34:11.436Z,4.20
2023-08-29T00:34:21.424Z,3.50
2023-08-29T00:34:31.425Z,3.50
2023-08-29T00:34:41.429Z,5.10
2023-08-29T00:34:51.445Z,4.70
2023-08-29T00:35:01.484Z,4.10
2023-08-29T00:35:11.484Z,2.40
2023-08-29T00:35:21.492Z,2.60
2023-08-29T00:35:31.519Z,2.90
2023-08-29T00:35:41.571Z,4.00
2023-08-29T00:35:51.595Z,3.90
2023-08-29T00:36:01.614Z,4.30
2023-08-29T00:36:11.628Z,3.80
2023-08-29T00:36:21.683Z,4.50
2023-08-29T00:36:31.702Z,5.20
2023-08-29T00:36:41.758Z,4.90
2023-08-29T00:36:51.808Z,3.70
2023-08-29T00:37:01.841Z,2.60
2023-08-29T00:37:11.873Z,3.50
2023-08-29T00:37:21.908Z,4.20
2023-08-29T00:37:31.943Z,4.50
2023-08-29T00:37:41.960Z,3.60
2023-08-29T00:37:52.008Z,4.00
2023-08-29T00:38:02.176Z,3.60
2023-08-29T00:38:12.021Z,4.30
2023-08-29T00:38:22.059Z,4.30
2023-08-29T00:38:32.100Z,5.30
2023-08-29T00:38:42.132Z,5.60
2023-08-29T00:38:52.173Z,5.30
2023-08-29T00:39:02.190Z,5.20
2023-08-29T00:39:12.260Z,4.90
2023-08-29T00:39:22.325Z,5.20
2023-08-29T00:39:32.370Z,4.20
2023-08-29T00:39:42.421Z,4.00
2023-08-29T00:39:52.452Z,3.50
2023-08-29T00:40:02.522Z,3.30
2023-08-29T00:40:12.539Z,3.50
2023-08-29T00:40:22.570Z,4.70
2023-08-29T00:40:32.609Z,5.60
2023-08-29T00:40:42.630Z,6.00
2023-08-29T00:40:52.653Z,4.50
2023-08-29T00:41:02.698Z,4.10
2023-08-29T00:41:12.749Z,3.30
2023-08-29T00:41:22.790Z,3.10
2023-08-29T00:41:32.825Z,3.00
2023-08-29T00:41:42.852Z,2.80
2023-08-29T00:41:52.896Z,3.60
2023-08-29T00:42:02.924Z,3.40
2023-08-29T00:42:12.940Z,3.40
2023-08-29T00:42:23.067Z,3.00
2023-08-29T00:42:33.106Z,3.70
2023-08-29T00:42:43.115Z,4.10
2023-08-29T00:42:53.156Z,5.30
2023-08-29T00:43:03.186Z,5.50
2023-08-29T00:43:13.208Z,5.50
2023-08-29T00:43:23.265Z,5.10
2023-08-29T00:43:33.292Z,4.50
2023-08-29T00:43:43.313Z,4.80
2023-08-29T00:43:53.342Z,3.80
2023-08-29T00:44:03.384Z,4.20
2023-08-29T00:44:13.423Z,3.60
2023-08-29T00:44:23.459Z,4.10
2023-08-29T00:44:33.503Z,3.00
2023-08-29T00:44:43.532Z,3.20
2023-08-29T00:44:53.577Z,4.10
2023-08-29T00:45:03.617Z,5.20
2023-08-29T00:45:13.654Z,5.50
2023-08-29T00:45:23.698Z,4.50
2023-08-29T00:45:33.752Z,4.10
2023-08-29T00:45:43.865Z,3.80
2023-08-29T00:45:53.931Z,4.40
2023-08-29T00:46:03.970Z,4.20
2023-08-29T00:46:14.036Z,4.00
2023-08-29T00:46:24.084Z,3.60
2023-08-29T00:46:34.085Z,4.40
2023-08-29T00:46:44.129Z,4.80
2023-08-29T00:46:54.146Z,4.20
2023-08-29T00:47:04.169Z,3.10
2023-08-29T00:47:14.202Z,2.80
2023-08-29T00:47:24.279Z,2.70
2023-08-29T00:47:34.301Z,3.30
2023-08-29T00:47:44.369Z,3.70
2023-08-29T00:47:54.409Z,3.90
2023-08-29T00:48:05.282Z,3.60
2023-08-29T00:48:14.484Z,3.80
2023-08-29T00:48:24.508Z,5.40
2023-08-29T00:48:34.548Z,5.70
2023-08-29T00:48:44.577Z,6.10
2023-08-29T00:48:54.615Z,4.60
2023-08-29T00:49:04.653Z,3.90
2023-08-29T00:49:14.704Z,4.00
2023-08-29T00:49:24.749Z,4.30
2023-08-29T00:49:34.843Z,4.30
2023-08-29T00:49:44.880Z,4.40
2023-08-29T00:49:54.911Z,7.00
2023-08-29T00:50:04.957Z,6.90
2023-08-29T00:50:14.972Z,6.70
2023-08-29T00:50:25.006Z,3.70
2023-08-29T00:50:35.040Z,4.40
2023-08-29T00:50:45.069Z,3.80
2023-08-29T00:50:55.113Z,3.70
2023-08-29T00:51:05.168Z,3.30
2023-08-29T00:51:15.207Z,3.60
2023-08-29T00:51:25.225Z,4.60
2023-08-29T00:51:35.287Z,5.10
2023-08-29T00:51:45.306Z,5.70
2023-08-29T00:51:55.366Z,4.80
2023-08-29T00:52:05.380Z,5.50
2023-08-29T00:52:15.478Z,4.70
2023-08-29T00:52:25.513Z,4.50
2023-08-29T00:52:35.557Z,2.50
2023-08-29T00:52:45.583Z,3.60
2023-08-29T00:52:55.654Z,3.90
2023-08-29T00:53:05.667Z,3.60
2023-08-29T00:53:15.723Z,2.90
2023-08-29T00:53:25.744Z,3.30
2023-08-29T00:53:35.816Z,3.60
2023-08-29T00:53:45.877Z,3.30
2023-08-29T00:53:55.919Z,2.90
2023-08-29T00:54:05.967Z,3.10
2023-08-29T00:54:16.000Z,3.10
2023-08-29T00:54:26.024Z,3.40
2023-08-29T00:54:36.048Z,4.10
2023-08-29T00:54:46.065Z,4.70
2023-08-29T00:54:56.107Z,4.60
2023-08-29T00:55:06.144Z,4.30
2023-08-29T00:55:16.191Z,3.70
2023-08-29T00:55:26.209Z,3.50
2023-08-29T00:55:36.243Z,3.40
2023-08-29T00:55:46.279Z,4.20
2023-08-29T00:55:56.321Z,4.70
2023-08-29T00:56:06.348Z,5.10
2023-08-29T00:56:16.376Z,6.00
2023-08-29T00:56:26.404Z,5.20
2023-08-29T00:56:36.442Z,4.50
2023-08-29T00:56:46.483Z,3.00
2023-08-29T00:56:56.524Z,3.10
2023-08-29T00:57:06.553Z,3.40
2023-08-29T00:57:16.582Z,5.10
2023-08-29T00:57:26.617Z,5.20
2023-08-29T00:57:36.627Z,4.70
2023-08-29T00:57:46.644Z,2.90
2023-08-29T00:57:56.685Z,3.10
2023-08-29T00:58:07.063Z,3.70
2023-08-29T00:58:16.719Z,3.60
2023-08-29T00:58:26.760Z,3.50
2023-08-29T00:58:36.794Z,3.70
2023-08-29T00:58:46.852Z,4.50
2023-08-29T00:58:56.843Z,4.30
2023-08-29T00:59:06.881Z,3.60
2023-08-29T00:59:16.916Z,2.70
2023-08-29T00:59:26.956Z,4.60
2023-08-29T00:59:36.973Z,5.80
2023-08-29T00:59:47.030Z,5.90
2023-08-29T00:59:57.053Z,4.20
2023-08-29T01:00:07.092Z,2.90
2023-08-29T01:00:17.127Z,5.00
2023-08-29T01:00:27.118Z,5.10
2023-08-29T01:00:37.173Z,6.40
2023-08-29T01:00:47.233Z,4.70
2023-08-29T01:00:57.256Z,5.30
2023-08-29T01:01:07.384Z,5.00
2023-08-29T01:01:17.427Z,4.40
2023-08-29T01:01:27.481Z,3.60
2023-08-29T01:01:37.565Z,2.70
2023-08-29T01:01:47.660Z,2.80
2023-08-29T01:01:57.687Z,2.40
2023-08-29T01:02:07.748Z,2.70
2023-08-29T01:02:17.791Z,2.90
2023-08-29T01:02:27.803Z,4.40
2023-08-29T01:02:37.896Z,3.80
2023-08-29T01:02:47.922Z,4.10
2023-08-29T01:02:58.023Z,3.50
2023-08-29T01:03:08.098Z,4.10
2023-08-29T01:03:18.272Z,3.70
2023-08-29T01:03:28.184Z,4.50
2023-08-29T01:03:38.241Z,4.50
2023-08-29T01:03:48.385Z,5.60
2023-08-29T01:03:58.434Z,4.80
2023-08-29T01:04:08.431Z,4.40
2023-08-29T01:04:18.468Z,3.80
2023-08-29T01:04:28.505Z,4.30
2023-08-29T01:04:38.514Z,4.40
2023-08-29T01:04:48.540Z,3.80
2023-08-29T01:04:58.574Z,3.40
2023-08-29T01:05:08.607Z,3.40
2023-08-29T01:05:18.648Z,5.20
2023-08-29T01:05:28.659Z,4.40
2023-08-29T01:05:38.684Z,4.30
2023-08-29T01:05:48.725Z,2.10
2023-08-29T01:05:58.777Z,2.00
2023-08-29T01:06:08.797Z,2.10
2023-08-29T01:06:18.817Z,3.20
2023-08-29T01:06:28.834Z,3.60
2023-08-29T01:06:38.951Z,4.40
2023-08-29T01:06:48.958Z,4.90
2023-08-29T01:06:58.987Z,5.10
2023-08-29T01:07:09.017Z,3.80
2023-08-29T01:07:19.040Z,2.90
2023-08-29T01:07:29.082Z,3.20
2023-08-29T01:07:39.150Z,3.30
2023-08-29T01:07:49.175Z,3.60
2023-08-29T01:07:59.197Z,2.90
2023-08-29T01:08:09.265Z,3.10
2023-08-29T01:08:19.282Z,3.10
2023-08-29T01:08:29.322Z,3.30
2023-08-29T01:08:39.342Z,2.80
2023-08-29T01:08:49.369Z,3.00
2023-08-29T01:08:59.401Z,3.10
2023-08-29T01:09:09.441Z,3.70
2023-08-29T01:09:19.514Z,3.50
2023-08-29T01:09:29.544Z,3.30
2023-08-29T01:09:45.600Z,3.00
2023-08-29T01:09:50.177Z,3.40
2023-08-29T01:10:00.205Z,4.30
2023-08-29T01:10:10.230Z,4.60
2023-08-29T01:10:20.275Z,4.50
2023-08-29T01:10:30.303Z,4.50
2023-08-29T01:10:50.359Z,3.90
2023-08-29T01:11:00.391Z,3.40
2023-08-29T01:11:10.446Z,3.90
2023-08-29T01:11:20.498Z,4.60
2023-08-29T01:11:30.523Z,4.70
2023-08-29T01:11:40.594Z,4.50
2023-08-29T01:11:50.642Z,4.60
2023-08-29T01:12:00.679Z,5.50
2023-08-29T01:12:10.736Z,5.20
2023-08-29T01:12:20.818Z,5.60
2023-08-29T01:12:30.891Z,4.30
2023-08-29T01:12:40.869Z,5.40
2023-08-29T01:12:50.908Z,5.20
2023-08-29T01:13:00.946Z,5.30
2023-08-29T01:13:10.996Z,4.90
2023-08-29T01:13:21.032Z,4.90
2023-08-29T01:13:31.076Z,5.80
2023-08-29T01:13:41.102Z,5.20
2023-08-29T01:13:51.142Z,5.20
2023-08-29T01:14:01.197Z,4.40
2023-08-29T01:14:11.244Z,4.50
2023-08-29T01:14:21.262Z,4.00
2023-08-29T01:14:31.303Z,4.10
2023-08-29T01:14:41.383Z,3.90
2023-08-29T01:14:51.406Z,3.50
2023-08-29T01:15:01.475Z,3.30
2023-08-29T01:15:11.478Z,3.20
2023-08-29T01:15:21.536Z,3.70
2023-08-29T01:15:31.560Z,4.50
2023-08-29T01:15:41.643Z,5.30
2023-08-29T01:15:51.826Z,5.60
2023-08-29T01:16:01.738Z,6.80
2023-08-29T01:16:11.841Z,5.80
2023-08-29T01:16:21.931Z,5.30
2023-08-29T01:16:31.958Z,3.50
2023-08-29T01:16:42.021Z,5.00
2023-08-29T01:16:52.058Z,4.70
2023-08-29T01:17:02.113Z,4.40
2023-08-29T01:17:12.207Z,3.60
2023-08-29T01:17:22.218Z,4.50
2023-08-29T01:17:32.276Z,4.40
2023-08-29T01:17:42.351Z,4.00
2023-08-29T01:17:52.426Z,4.00
2023-08-29T01:18:02.464Z,6.30
2023-08-29T01:18:12.487Z,6.60
2023-08-29T01:18:22.530Z,5.90
2023-08-29T01:18:32.552Z,3.60
2023-08-29T01:18:42.665Z,3.60
2023-08-29T01:18:52.679Z,3.80
2023-08-29T01:19:02.741Z,4.50
2023-08-29T01:19:12.785Z,4.40
2023-08-29T01:19:22.829Z,4.50
2023-08-29T01:19:32.858Z,3.90
2023-08-29T01:19:42.906Z,4.00
2023-08-29T01:19:52.929Z,4.20
2023-08-29T01:20:02.972Z,4.50
2023-08-29T01:20:12.992Z,5.60
2023-08-29T01:20:23.038Z,5.30
2023-08-29T01:20:33.060Z,5.20
2023-08-29T01:20:43.091Z,4.00
2023-08-29T01:20:53.127Z,3.80
2023-08-29T01:21:03.154Z,4.10
2023-08-29T01:21:13.196Z,4.60
2023-08-29T01:21:23.227Z,4.70
2023-08-29T01:21:33.257Z,4.10
2023-08-29T01:21:43.279Z,3.90
2023-08-29T01:21:53.314Z,4.50
2023-08-29T01:22:03.362Z,5.20
2023-08-29T01:22:13.404Z,5.20
2023-08-29T01:22:23.420Z,5.60
2023-08-29T01:22:33.454Z,5.00
2023-08-29T01:22:43.519Z,5.40
2023-08-29T01:23:04.022Z,5.90
2023-08-29T01:23:14.028Z,5.90
2023-08-29T01:23:15.716Z,5.20
2023-08-29T01:23:25.400Z,4.50
2023-08-29T01:23:35.416Z,5.90
2023-08-29T01:23:45.433Z,6.80
2023-08-29T01:23:55.462Z,6.00
2023-08-29T01:24:05.509Z,5.00
2023-08-29T01:24:15.512Z,4.30
2023-08-29T01:24:25.584Z,3.90
2023-08-29T01:24:35.589Z,3.40
2023-08-29T01:24:45.634Z,5.70
2023-08-29T01:24:55.687Z,5.50
2023-08-29T01:25:05.732Z,6.40
2023-08-29T01:25:15.769Z,5.40
2023-08-29T01:25:25.826Z,6.30
2023-08-29T01:25:35.864Z,5.90
2023-08-29T01:25:45.904Z,4.70
2023-08-29T01:25:56.004Z,4.70
2023-08-29T01:26:06.022Z,6.20
2023-08-29T01:26:16.061Z,6.10
2023-08-29T01:26:26.102Z,5.60
2023-08-29T01:26:36.138Z,4.60
2023-08-29T01:26:46.170Z,4.70
2023-08-29T01:26:56.201Z,4.70
2023-08-29T01:27:06.243Z,4.20
2023-08-29T01:27:16.287Z,4.80
2023-08-29T01:27:26.323Z,5.10
2023-08-29T01:27:36.376Z,4.50
2023-08-29T01:27:46.423Z,4.60
2023-08-29T01:27:56.443Z,4.40
2023-08-29T01:28:06.852Z,6.00
2023-08-29T01:28:16.544Z,5.70
2023-08-29T01:28:26.594Z,7.20
2023-08-29T01:28:36.622Z,6.00
2023-08-29T01:28:46.684Z,5.80
2023-08-29T01:28:56.690Z,5.80
2023-08-29T01:29:06.733Z,6.80
2023-08-29T01:29:16.813Z,7.10
2023-08-29T01:29:26.864Z,5.40
2023-08-29T01:29:36.894Z,4.50
2023-08-29T01:29:46.933Z,5.20
2023-08-29T01:29:56.963Z,5.40
2023-08-29T01:30:07.025Z,5.60
2023-08-29T01:30:17.059Z,4.10
2023-08-29T01:30:27.133Z,4.00
2023-08-29T01:30:37.170Z,4.20
2023-08-29T01:30:47.258Z,4.40
2023-08-29T01:30:57.340Z,5.70
2023-08-29T01:31:07.382Z,4.90
2023-08-29T01:31:17.416Z,5.30
2023-08-29T01:31:27.463Z,4.30
2023-08-29T01:31:37.603Z,4.80
2023-08-29T01:31:47.690Z,4.90
2023-08-29T01:31:57.715Z,5.60
2023-08-29T01:32:07.768Z,5.20
2023-08-29T01:32:17.810Z,5.00
2023-08-29T01:32:27.932Z,3.90
2023-08-29T01:32:37.991Z,3.60
2023-08-29T01:32:48.081Z,3.50
2023-08-29T01:32:58.100Z,4.30
2023-08-29T01:33:08.180Z,8.40
2023-08-29T01:33:18.231Z,8.30
2023-08-29T01:33:28.302Z,8.40
2023-08-29T01:33:38.331Z,5.20
2023-08-29T01:33:48.389Z,4.90
2023-08-29T01:33:58.414Z,4.70
2023-08-29T01:34:08.465Z,4.90
2023-08-29T01:34:18.490Z,8.20
2023-08-29T01:34:28.524Z,7.90
2023-08-29T01:34:38.573Z,7.50
2023-08-29T01:34:48.608Z,4.80
2023-08-29T01:34:58.655Z,5.40
2023-08-29T01:35:08.704Z,6.40
2023-08-29T01:35:18.740Z,7.00
2023-08-29T01:35:28.852Z,7.00
2023-08-29T01:35:38.884Z,5.90
2023-08-29T01:35:48.915Z,6.00
2023-08-29T01:35:58.942Z,5.40
2023-08-29T01:36:09.030Z,6.00
2023-08-29T01:36:19.059Z,5.00
2023-08-29T01:36:29.093Z,4.70
2023-08-29T01:36:39.086Z,3.80
2023-08-29T01:36:49.134Z,4.20
2023-08-29T01:36:59.145Z,5.20
2023-08-29T01:37:09.173Z,5.80
2023-08-29T01:37:19.202Z,5.70
2023-08-29T01:37:29.221Z,5.10
2023-08-29T01:37:39.254Z,5.10
2023-08-29T01:37:49.294Z,5.30
2023-08-29T01:37:59.333Z,5.40
2023-08-29T01:38:09.384Z,4.60
2023-08-29T01:38:19.498Z,4.30
2023-08-29T01:38:29.547Z,4.30
2023-08-29T01:38:39.588Z,5.30
2023-08-29T01:38:49.611Z,5.40
2023-08-29T01:38:59.645Z,5.90
2023-08-29T01:39:09.723Z,6.00
2023-08-29T01:39:19.762Z,7.00
2023-08-29T01:39:29.809Z,6.30
2023-08-29T01:39:39.874Z,4.50
2023-08-29T01:39:49.961Z,4.80
2023-08-29T01:39:59.990Z,5.70
2023-08-29T01:40:10.032Z,6.50
2023-08-29T01:40:20.071Z,6.20
2023-08-29T01:40:30.115Z,5.00
2023-08-29T01:40:40.149Z,4.80
2023-08-29T01:40:50.206Z,4.10
2023-08-29T01:41:00.253Z,5.00
2023-08-29T01:41:10.276Z,5.70
2023-08-29T01:41:20.297Z,5.90
2023-08-29T01:41:30.337Z,5.90
2023-08-29T01:41:40.362Z,5.00
2023-08-29T01:41:50.415Z,4.00
2023-08-29T01:42:00.448Z,4.20
2023-08-29T01:42:10.472Z,5.00
2023-08-29T01:42:20.484Z,5.70
2023-08-29T01:42:30.534Z,5.70
2023-08-29T01:42:40.564Z,4.90
2023-08-29T01:42:50.637Z,4.10
2023-08-29T01:43:00.668Z,3.40
2023-08-29T01:43:10.721Z,5.00
2023-08-29T01:43:20.762Z,5.70
2023-08-29T01:43:30.815Z,5.90
2023-08-29T01:43:40.844Z,4.90
2023-08-29T01:43:50.883Z,5.00
2023-08-29T01:44:00.915Z,5.80
2023-08-29T01:44:10.993Z,5.20
2023-08-29T01:44:21.036Z,5.20
2023-08-29T01:44:31.073Z,5.90
2023-08-29T01:44:41.108Z,5.20
2023-08-29T01:44:51.225Z,4.30
2023-08-29T01:45:01.284Z,4.60
2023-08-29T01:45:11.318Z,5.50
2023-08-29T01:45:21.425Z,6.30
2023-08-29T01:45:31.561Z,5.50
2023-08-29T01:45:41.568Z,5.10
2023-08-29T01:45:51.577Z,3.80
2023-08-29T01:46:01.625Z,4.10
2023-08-29T01:46:11.659Z,4.60
2023-08-29T01:46:21.740Z,4.70
2023-08-29T01:46:31.765Z,5.40
2023-08-29T01:46:41.763Z,5.50
2023-08-29T01:46:51.814Z,5.90
2023-08-29T01:47:01.836Z,4.40
2023-08-29T01:47:11.885Z,5.50
2023-08-29T01:47:21.918Z,6.10
2023-08-29T01:47:32.001Z,7.10
2023-08-29T01:47:42.053Z,6.70
2023-08-29T01:47:52.086Z,5.70
2023-08-29T01:48:02.183Z,4.90
2023-08-29T01:48:12.366Z,4.30
2023-08-29T01:48:22.323Z,4.80
2023-08-29T01:48:32.368Z,6.70
2023-08-29T01:48:42.429Z,6.10
2023-08-29T01:48:52.449Z,6.20
2023-08-29T01:49:02.527Z,4.60
2023-08-29T01:49:12.594Z,4.60
2023-08-29T01:49:22.632Z,4.30
2023-08-29T01:49:32.675Z,4.60
2023-08-29T01:49:42.711Z,6.70
2023-08-29T01:49:52.744Z,6.30
2023-08-29T01:50:02.778Z,5.90
2023-08-29T01:50:12.901Z,3.00
2023-08-29T01:50:22.921Z,4.10
2023-08-29T01:50:32.933Z,4.40
2023-08-29T01:50:42.955Z,4.50
2023-08-29T01:50:53.014Z,4.50
2023-08-29T01:51:03.037Z,3.90
2023-08-29T01:51:13.105Z,5.00
2023-08-29T01:51:23.127Z,3.80
2023-08-29T01:51:33.169Z,3.70
2023-08-29T01:51:43.210Z,5.50
2023-08-29T01:51:53.261Z,7.50
2023-08-29T01:52:03.287Z,9.20
2023-08-29T01:52:13.387Z,9.20
2023-08-29T01:52:23.431Z,8.60
2023-08-29T01:52:33.452Z,7.10
2023-08-29T01:52:43.516Z,5.60
2023-08-29T01:52:53.544Z,4.90
2023-08-29T01:53:03.592Z,5.90
2023-08-29T01:53:13.623Z,5.30
2023-08-29T01:53:23.679Z,5.60
2023-08-29T01:53:33.697Z,5.70
2023-08-29T01:53:43.720Z,5.40
2023-08-29T01:53:53.754Z,5.60
2023-08-29T01:54:03.797Z,4.70
2023-08-29T01:54:13.820Z,5.30
2023-08-29T01:54:23.854Z,4.60
2023-08-29T01:54:33.877Z,3.80
2023-08-29T01:54:43.905Z,5.20
2023-08-29T01:54:53.951Z,4.60
2023-08-29T01:55:03.992Z,4.90
2023-08-29T01:55:14.045Z,3.10
2023-08-29T01:55:24.063Z,3.70
2023-08-29T01:55:34.107Z,4.10
2023-08-29T01:55:44.145Z,4.80
2023-08-29T01:55:54.174Z,4.80
2023-08-29T01:56:04.207Z,4.90
2023-08-29T01:56:14.255Z,4.50
2023-08-29T01:56:24.302Z,5.00
2023-08-29T01:56:34.349Z,5.60
2023-08-29T01:56:44.365Z,6.00
2023-08-29T01:56:54.400Z,6.20
2023-08-29T01:57:04.445Z,5.00
2023-08-29T01:57:14.507Z,4.70
2023-08-29T01:57:24.558Z,4.80
2023-08-29T01:57:34.658Z,4.50
2023-08-29T01:57:44.708Z,4.20
2023-08-29T01:57:54.763Z,3.90
2023-08-29T01:58:05.218Z,4.80
2023-08-29T01:58:14.889Z,4.60
2023-08-29T01:58:24.918Z,4.00
2023-08-29T01:58:34.991Z,3.30
2023-08-29T01:58:45.028Z,4.10
2023-08-29T01:58:55.064Z,4.50
2023-08-29T01:59:05.093Z,4.60
2023-08-29T01:59:15.127Z,4.60
2023-08-29T01:59:25.155Z,4.80
2023-08-29T01:59:35.190Z,5.00
2023-08-29T01:59:45.243Z,5.20
2023-08-29T01:59:55.274Z,4.70
2023-08-29T02:00:05.349Z,4.30
2023-08-29T02:00:15.354Z,3.20
2023-08-29T02:00:25.373Z,3.30
2023-08-29T02:00:35.405Z,3.70
2023-08-29T02:00:45.498Z,4.20
2023-08-29T02:00:56.190Z,4.90
2023-08-29T02:01:20.987Z,4.80
2023-08-29T02:01:23.239Z,5.00
2023-08-29T02:01:27.429Z,3.60
2023-08-29T02:01:37.455Z,4.50
2023-08-29T02:01:47.564Z,5.60
2023-08-29T02:01:57.647Z,6.70
2023-08-29T02:02:07.717Z,6.20
2023-08-29T02:02:17.794Z,5.40
2023-08-29T02:02:27.918Z,5.50
2023-08-29T02:02:37.965Z,5.70
2023-08-29T02:02:48.033Z,5.40
2023-08-29T02:02:58.080Z,5.40
2023-08-29T02:03:08.276Z,4.90
2023-08-29T02:03:18.163Z,5.80
2023-08-29T02:03:28.234Z,4.80
2023-08-29T02:03:38.310Z,5.40
2023-08-29T02:03:48.419Z,4.70
2023-08-29T02:03:58.456Z,5.40
2023-08-29T02:04:08.599Z,4.40
2023-08-29T02:04:18.658Z,5.00
2023-08-29T02:04:28.725Z,6.40
2023-08-29T02:04:38.819Z,7.30
2023-08-29T02:04:48.898Z,7.10
2023-08-29T02:04:58.989Z,6.20
2023-08-29T02:05:09.114Z,6.10
2023-08-29T02:05:19.186Z,5.30
2023-08-29T02:05:29.259Z,4.70
2023-08-29T02:05:39.328Z,5.00
2023-08-29T02:05:49.404Z,5.80
2023-08-29T02:05:59.444Z,6.60
2023-08-29T02:06:09.422Z,5.80
2023-08-29T02:06:19.466Z,7.00
2023-08-29T02:06:29.500Z,6.60
2023-08-29T02:06:39.565Z,6.70
2023-08-29T02:06:49.601Z,4.50
2023-08-29T02:06:59.705Z,3.30
2023-08-29T02:07:09.770Z,3.00
2023-08-29T02:07:19.809Z,3.30
2023-08-29T02:07:29.850Z,4.20
2023-08-29T02:07:39.875Z,5.20
2023-08-29T02:07:49.902Z,5.50
2023-08-29T02:07:59.934Z,4.80
2023-08-29T02:08:10.055Z,3.90
2023-08-29T02:08:20.096Z,4.00
2023-08-29T02:08:30.124Z,6.30
2023-08-29T02:08:40.163Z,6.80
2023-08-29T02:08:50.195Z,8.60
2023-08-29T02:09:00.242Z,6.60
2023-08-29T02:09:10.268Z,7.10
2023-08-29T02:09:20.297Z,5.80
2023-08-29T02:09:30.328Z,6.60
2023-08-29T02:09:40.356Z,7.30
2023-08-29T02:09:50.388Z,6.80
2023-08-29T02:10:00.441Z,6.80
2023-08-29T02:10:10.482Z,6.00
2023-08-29T02:10:20.491Z,5.80
2023-08-29T02:10:30.529Z,4.70
2023-08-29T02:10:40.564Z,4.30
2023-08-29T02:10:50.609Z,3.70
2023-08-29T02:11:00.648Z,3.70
2023-08-29T02:11:10.692Z,3.60
2023-08-29T02:11:20.762Z,4.70
2023-08-29T02:11:30.783Z,5.30
2023-08-29T02:11:40.841Z,5.80
2023-08-29T02:11:50.878Z,5.20
2023-08-29T02:12:00.914Z,5.20
2023-08-29T02:12:10.962Z,4.50
2023-08-29T02:12:21.008Z,4.40
2023-08-29T02:12:31.070Z,3.90
2023-08-29T02:12:41.115Z,4.10
2023-08-29T02:12:51.154Z,4.70
2023-08-29T02:13:01.200Z,4.60
2023-08-29T02:13:11.222Z,4.20
2023-08-29T02:13:21.279Z,3.60
2023-08-29T02:13:31.295Z,3.40
2023-08-29T02:13:41.320Z,4.20
2023-08-29T02:13:51.383Z,5.00